sensor_id;sensor_type;location;lat;lon;timestamp;temperature;humidity
59703;DHT22;45570;48.782;8.332;2023-04-07T00:01:15;7.80;99.90
59703;DHT22;45570;48.782;8.332;2023-04-07T00:03:44;7.70;99.90
59703;DHT22;45570;48.782;8.332;2023-04-07T00:06:15;7.70;99.90
59703;DHT22;45570;48.782;8.332;2023-04-07T00:08:44;7.60;99.90
59703;DHT22;45570;48.782;8.332;2023-04-07T00:11:13;7.70;99.90
59703;DHT22;45570;48.782;8.332;2023-04-07T00:13:42;7.70;99.90
59703;DHT22;45570;48.782;8.332;2023-04-07T00:16:12;7.70;99.90
59703;DHT22;45570;48.782;8.332;2023-04-07T00:18:41;7.70;99.90
59703;DHT22;45570;48.782;8.332;2023-04-07T00:21:10;7.70;99.90
59703;DHT22;45570;48.782;8.332;2023-04-07T00:23:40;7.80;99.90
59703;DHT22;45570;48.782;8.332;2023-04-07T00:26:10;7.90;99.90
59703;DHT22;45570;48.782;8.332;2023-04-07T00:28:42;7.90;99.90
59703;DHT22;45570;48.782;8.332;2023-04-07T00:31:11;7.80;99.90
59703;DHT22;45570;48.782;8.332;2023-04-07T00:33:40;7.70;99.90
59703;DHT22;45570;48.782;8.332;2023-04-07T00:36:09;7.90;99.90
59703;DHT22;45570;48.782;8.332;2023-04-07T00:38:40;8.00;99.90
59703;DHT22;45570;48.782;8.332;2023-04-07T00:41:10;8.00;99.90
59703;DHT22;45570;48.782;8.332;2023-04-07T00:43:39;7.90;99.90
59703;DHT22;45570;48.782;8.332;2023-04-07T00:46:08;7.90;99.90
59703;DHT22;45570;48.782;8.332;2023-04-07T00:48:37;8.00;99.90
59703;DHT22;45570;48.782;8.332;2023-04-07T00:51:45;7.90;99.90
59703;DHT22;45570;48.782;8.332;2023-04-07T00:54:17;7.80;99.90
59703;DHT22;45570;48.782;8.332;2023-04-07T00:56:46;7.70;99.90
59703;DHT22;45570;48.782;8.332;2023-04-07T00:59:16;7.60;99.90
59703;DHT22;45570;48.782;8.332;2023-04-07T01:01:58;7.60;99.90
59703;DHT22;45570;48.782;8.332;2023-04-07T01:04:34;7.60;99.90
59703;DHT22;45570;48.782;8.332;2023-04-07T01:07:17;7.70;99.90
59703;DHT22;45570;48.782;8.332;2023-04-07T01:10:02;7.80;99.90
59703;DHT22;45570;48.782;8.332;2023-04-07T01:12:46;7.90;99.90
59703;DHT22;45570;48.782;8.332;2023-04-07T01:15:23;7.90;99.90
59703;DHT22;45570;48.782;8.332;2023-04-07T01:18:07;7.90;99.90
59703;DHT22;45570;48.782;8.332;2023-04-07T01:20:37;7.90;99.90
59703;DHT22;45570;48.782;8.332;2023-04-07T01:23:08;7.90;99.90
59703;DHT22;45570;48.782;8.332;2023-04-07T01:26:03;8.00;99.90
59703;DHT22;45570;48.782;8.332;2023-04-07T01:28:48;8.00;99.90
59703;DHT22;45570;48.782;8.332;2023-04-07T01:31:20;8.20;99.90
59703;DHT22;45570;48.782;8.332;2023-04-07T01:33:51;8.10;99.90
59703;DHT22;45570;48.782;8.332;2023-04-07T01:36:22;8.10;99.90
59703;DHT22;45570;48.782;8.332;2023-04-07T01:38:54;8.10;99.90
59703;DHT22;45570;48.782;8.332;2023-04-07T01:41:24;8.20;99.90
59703;DHT22;45570;48.782;8.332;2023-04-07T01:43:54;8.20;99.90
59703;DHT22;45570;48.782;8.332;2023-04-07T01:46:26;8.10;99.90
59703;DHT22;45570;48.782;8.332;2023-04-07T01:48:55;8.10;99.90
59703;DHT22;45570;48.782;8.332;2023-04-07T01:51:25;8.10;99.90
59703;DHT22;45570;48.782;8.332;2023-04-07T01:53:57;8.10;99.90
59703;DHT22;45570;48.782;8.332;2023-04-07T01:56:27;8.00;99.90
59703;DHT22;45570;48.782;8.332;2023-04-07T01:58:58;8.10;99.90
59703;DHT22;45570;48.782;8.332;2023-04-07T02:01:30;8.00;99.90
59703;DHT22;45570;48.782;8.332;2023-04-07T02:04:05;8.00;99.90
59703;DHT22;45570;48.782;8.332;2023-04-07T02:06:42;8.00;99.90
59703;DHT22;45570;48.782;8.332;2023-04-07T02:09:14;8.10;99.90
59703;DHT22;45570;48.782;8.332;2023-04-07T02:11:45;8.00;99.90
59703;DHT22;45570;48.782;8.332;2023-04-07T02:14:14;8.10;99.90
59703;DHT22;45570;48.782;8.332;2023-04-07T02:17:03;8.00;99.90
59703;DHT22;45570;48.782;8.332;2023-04-07T02:19:33;8.00;99.90
59703;DHT22;45570;48.782;8.332;2023-04-07T02:22:03;8.00;99.90
59703;DHT22;45570;48.782;8.332;2023-04-07T02:24:32;8.00;99.90
59703;DHT22;45570;48.782;8.332;2023-04-07T02:27:02;8.00;99.90
59703;DHT22;45570;48.782;8.332;2023-04-07T02:29:32;8.00;99.90
59703;DHT22;45570;48.782;8.332;2023-04-07T02:32:02;8.20;99.90
59703;DHT22;45570;48.782;8.332;2023-04-07T02:34:32;8.10;99.90
59703;DHT22;45570;48.782;8.332;2023-04-07T02:37:01;8.10;99.90
59703;DHT22;45570;48.782;8.332;2023-04-07T02:39:30;8.10;99.90
59703;DHT22;45570;48.782;8.332;2023-04-07T02:42:00;8.10;99.90
59703;DHT22;45570;48.782;8.332;2023-04-07T02:44:29;8.10;99.90
59703;DHT22;45570;48.782;8.332;2023-04-07T02:46:59;8.20;99.90
59703;DHT22;45570;48.782;8.332;2023-04-07T02:49:29;8.30;99.90
59703;DHT22;45570;48.782;8.332;2023-04-07T02:51:59;8.20;99.90
59703;DHT22;45570;48.782;8.332;2023-04-07T02:54:28;8.10;99.90
59703;DHT22;45570;48.782;8.332;2023-04-07T02:56:57;8.20;99.90
59703;DHT22;45570;48.782;8.332;2023-04-07T02:59:28;8.10;99.90
59703;DHT22;45570;48.782;8.332;2023-04-07T03:01:57;8.10;99.90
59703;DHT22;45570;48.782;8.332;2023-04-07T03:04:29;8.00;99.90
59703;DHT22;45570;48.782;8.332;2023-04-07T03:06:59;8.00;99.90
59703;DHT22;45570;48.782;8.332;2023-04-07T03:09:30;7.90;99.90
59703;DHT22;45570;48.782;8.332;2023-04-07T03:12:00;7.90;99.90
59703;DHT22;45570;48.782;8.332;2023-04-07T03:14:33;7.90;99.90
59703;DHT22;45570;48.782;8.332;2023-04-07T03:17:03;7.90;99.90
59703;DHT22;45570;48.782;8.332;2023-04-07T03:19:34;7.80;99.90
59703;DHT22;45570;48.782;8.332;2023-04-07T03:22:03;7.90;99.90
59703;DHT22;45570;48.782;8.332;2023-04-07T03:24:36;7.90;99.90
59703;DHT22;45570;48.782;8.332;2023-04-07T03:27:06;7.90;99.90
59703;DHT22;45570;48.782;8.332;2023-04-07T03:29:40;7.90;99.90
59703;DHT22;45570;48.782;8.332;2023-04-07T03:32:14;7.90;99.90
59703;DHT22;45570;48.782;8.332;2023-04-07T03:34:44;7.90;99.90
59703;DHT22;45570;48.782;8.332;2023-04-07T03:37:14;7.80;99.90
59703;DHT22;45570;48.782;8.332;2023-04-07T03:39:44;7.80;99.90
59703;DHT22;45570;48.782;8.332;2023-04-07T03:42:24;7.80;99.90
59703;DHT22;45570;48.782;8.332;2023-04-07T03:45:00;7.70;99.90
59703;DHT22;45570;48.782;8.332;2023-04-07T03:47:31;7.50;99.90
59703;DHT22;45570;48.782;8.332;2023-04-07T03:50:04;7.50;99.90
59703;DHT22;45570;48.782;8.332;2023-04-07T03:52:42;7.50;99.90
59703;DHT22;45570;48.782;8.332;2023-04-07T03:55:21;7.50;99.90
59703;DHT22;45570;48.782;8.332;2023-04-07T03:57:56;7.30;99.90
59703;DHT22;45570;48.782;8.332;2023-04-07T04:00:29;7.20;99.90
59703;DHT22;45570;48.782;8.332;2023-04-07T04:03:07;7.10;99.90
59703;DHT22;45570;48.782;8.332;2023-04-07T04:05:45;7.00;99.90
59703;DHT22;45570;48.782;8.332;2023-04-07T04:08:20;6.90;99.90
59703;DHT22;45570;48.782;8.332;2023-04-07T04:10:49;6.90;99.90
59703;DHT22;45570;48.782;8.332;2023-04-07T04:13:19;7.00;99.90
59703;DHT22;45570;48.782;8.332;2023-04-07T04:15:49;7.10;99.90
59703;DHT22;45570;48.782;8.332;2023-04-07T04:18:18;7.10;99.90
59703;DHT22;45570;48.782;8.332;2023-04-07T04:20:49;7.10;99.90
59703;DHT22;45570;48.782;8.332;2023-04-07T04:23:19;7.20;99.90
59703;DHT22;45570;48.782;8.332;2023-04-07T04:25:52;7.20;99.90
59703;DHT22;45570;48.782;8.332;2023-04-07T04:28:21;7.20;99.90
59703;DHT22;45570;48.782;8.332;2023-04-07T04:30:50;7.10;99.90
59703;DHT22;45570;48.782;8.332;2023-04-07T04:33:19;7.10;99.90
59703;DHT22;45570;48.782;8.332;2023-04-07T04:35:56;7.00;99.90
59703;DHT22;45570;48.782;8.332;2023-04-07T04:38:26;7.00;99.90
59703;DHT22;45570;48.782;8.332;2023-04-07T04:41:14;7.00;99.90
59703;DHT22;45570;48.782;8.332;2023-04-07T04:43:44;7.00;99.90
59703;DHT22;45570;48.782;8.332;2023-04-07T04:46:18;7.00;99.90
59703;DHT22;45570;48.782;8.332;2023-04-07T04:48:49;7.00;99.90
59703;DHT22;45570;48.782;8.332;2023-04-07T04:51:22;7.00;99.90
59703;DHT22;45570;48.782;8.332;2023-04-07T04:53:56;6.90;99.90
59703;DHT22;45570;48.782;8.332;2023-04-07T04:56:26;6.90;99.90
59703;DHT22;45570;48.782;8.332;2023-04-07T04:58:56;6.90;99.90
59703;DHT22;45570;48.782;8.332;2023-04-07T05:01:52;6.90;99.90
59703;DHT22;45570;48.782;8.332;2023-04-07T05:04:21;6.90;99.90
59703;DHT22;45570;48.782;8.332;2023-04-07T05:07:00;6.80;99.90
59703;DHT22;45570;48.782;8.332;2023-04-07T05:09:31;6.80;99.90
59703;DHT22;45570;48.782;8.332;2023-04-07T05:12:00;6.90;99.90
59703;DHT22;45570;48.782;8.332;2023-04-07T05:14:34;6.90;99.90
59703;DHT22;45570;48.782;8.332;2023-04-07T05:17:06;6.90;99.90
59703;DHT22;45570;48.782;8.332;2023-04-07T05:19:35;7.00;99.90
59703;DHT22;45570;48.782;8.332;2023-04-07T05:22:14;7.00;99.90
59703;DHT22;45570;48.782;8.332;2023-04-07T05:24:46;7.00;99.90
59703;DHT22;45570;48.782;8.332;2023-04-07T05:27:15;7.10;99.90
59703;DHT22;45570;48.782;8.332;2023-04-07T05:29:49;7.10;99.90
59703;DHT22;45570;48.782;8.332;2023-04-07T05:32:27;7.00;99.90
59703;DHT22;45570;48.782;8.332;2023-04-07T05:35:01;7.10;99.90
59703;DHT22;45570;48.782;8.332;2023-04-07T05:37:36;7.10;99.90
59703;DHT22;45570;48.782;8.332;2023-04-07T05:40:07;7.10;99.90
59703;DHT22;45570;48.782;8.332;2023-04-07T05:42:37;7.20;99.90
59703;DHT22;45570;48.782;8.332;2023-04-07T05:45:08;7.20;99.90
59703;DHT22;45570;48.782;8.332;2023-04-07T05:47:42;7.20;99.90
59703;DHT22;45570;48.782;8.332;2023-04-07T05:50:14;7.20;99.90
59703;DHT22;45570;48.782;8.332;2023-04-07T05:52:47;7.20;99.90
59703;DHT22;45570;48.782;8.332;2023-04-07T05:55:21;7.20;99.90
59703;DHT22;45570;48.782;8.332;2023-04-07T05:57:51;7.20;99.90
59703;DHT22;45570;48.782;8.332;2023-04-07T06:00:24;7.30;99.90
59703;DHT22;45570;48.782;8.332;2023-04-07T06:03:15;7.30;99.90
59703;DHT22;45570;48.782;8.332;2023-04-07T06:05:57;7.30;99.90
59703;DHT22;45570;48.782;8.332;2023-04-07T06:08:27;7.30;99.90
59703;DHT22;45570;48.782;8.332;2023-04-07T06:10:57;7.40;99.90
59703;DHT22;45570;48.782;8.332;2023-04-07T06:13:26;7.50;99.90
59703;DHT22;45570;48.782;8.332;2023-04-07T06:15:55;7.70;99.90
59703;DHT22;45570;48.782;8.332;2023-04-07T06:18:24;7.90;99.90
59703;DHT22;45570;48.782;8.332;2023-04-07T06:20:53;8.10;99.90
59703;DHT22;45570;48.782;8.332;2023-04-07T06:23:26;8.30;99.90
59703;DHT22;45570;48.782;8.332;2023-04-07T06:25:56;8.60;99.90
59703;DHT22;45570;48.782;8.332;2023-04-07T06:28:25;8.70;99.90
59703;DHT22;45570;48.782;8.332;2023-04-07T06:30:54;8.80;99.90
59703;DHT22;45570;48.782;8.332;2023-04-07T06:33:25;8.90;99.90
59703;DHT22;45570;48.782;8.332;2023-04-07T06:35:56;9.00;99.90
59703;DHT22;45570;48.782;8.332;2023-04-07T06:38:26;9.00;99.90
59703;DHT22;45570;48.782;8.332;2023-04-07T06:40:56;9.00;99.90
59703;DHT22;45570;48.782;8.332;2023-04-07T06:43:25;9.10;99.90
59703;DHT22;45570;48.782;8.332;2023-04-07T06:45:59;9.30;99.90
59703;DHT22;45570;48.782;8.332;2023-04-07T06:48:29;9.40;99.90
59703;DHT22;45570;48.782;8.332;2023-04-07T06:50:58;9.60;99.90
59703;DHT22;45570;48.782;8.332;2023-04-07T06:53:29;9.70;99.90
59703;DHT22;45570;48.782;8.332;2023-04-07T06:56:05;9.80;99.90
59703;DHT22;45570;48.782;8.332;2023-04-07T06:58:34;9.80;99.90
59703;DHT22;45570;48.782;8.332;2023-04-07T07:01:04;9.90;99.90
59703;DHT22;45570;48.782;8.332;2023-04-07T07:03:34;10.00;99.90
59703;DHT22;45570;48.782;8.332;2023-04-07T07:06:03;10.10;99.90
59703;DHT22;45570;48.782;8.332;2023-04-07T07:08:34;10.30;99.90
59703;DHT22;45570;48.782;8.332;2023-04-07T07:11:03;10.30;99.90
59703;DHT22;45570;48.782;8.332;2023-04-07T07:13:33;10.30;99.90
59703;DHT22;45570;48.782;8.332;2023-04-07T07:16:02;10.30;99.90
59703;DHT22;45570;48.782;8.332;2023-04-07T07:18:31;10.30;99.90
59703;DHT22;45570;48.782;8.332;2023-04-07T07:21:01;10.30;99.90
59703;DHT22;45570;48.782;8.332;2023-04-07T07:23:30;10.40;99.90
59703;DHT22;45570;48.782;8.332;2023-04-07T07:26:02;10.30;99.90
59703;DHT22;45570;48.782;8.332;2023-04-07T07:28:31;10.40;99.90
59703;DHT22;45570;48.782;8.332;2023-04-07T07:31:00;10.40;99.90
59703;DHT22;45570;48.782;8.332;2023-04-07T07:33:36;10.40;99.90
59703;DHT22;45570;48.782;8.332;2023-04-07T07:36:07;10.40;99.90
59703;DHT22;45570;48.782;8.332;2023-04-07T07:38:36;10.50;99.90
59703;DHT22;45570;48.782;8.332;2023-04-07T07:41:07;10.40;99.90
59703;DHT22;45570;48.782;8.332;2023-04-07T07:43:36;10.30;99.90
59703;DHT22;45570;48.782;8.332;2023-04-07T07:46:05;10.30;99.90
59703;DHT22;45570;48.782;8.332;2023-04-07T07:48:34;10.30;99.90
59703;DHT22;45570;48.782;8.332;2023-04-07T07:51:04;10.40;99.90
59703;DHT22;45570;48.782;8.332;2023-04-07T07:53:33;10.40;99.90
59703;DHT22;45570;48.782;8.332;2023-04-07T07:56:02;10.30;99.90
59703;DHT22;45570;48.782;8.332;2023-04-07T07:58:33;10.30;99.90
59703;DHT22;45570;48.782;8.332;2023-04-07T08:01:02;10.30;99.90
59703;DHT22;45570;48.782;8.332;2023-04-07T08:03:31;10.20;99.90
59703;DHT22;45570;48.782;8.332;2023-04-07T08:06:01;10.20;99.90
59703;DHT22;45570;48.782;8.332;2023-04-07T08:08:30;10.20;99.90
59703;DHT22;45570;48.782;8.332;2023-04-07T08:10:59;10.10;99.90
59703;DHT22;45570;48.782;8.332;2023-04-07T08:13:29;10.20;99.90
59703;DHT22;45570;48.782;8.332;2023-04-07T08:16:00;10.20;99.90
59703;DHT22;45570;48.782;8.332;2023-04-07T08:18:29;10.30;99.90
59703;DHT22;45570;48.782;8.332;2023-04-07T08:20:58;10.40;99.90
59703;DHT22;45570;48.782;8.332;2023-04-07T08:23:28;10.40;99.90
59703;DHT22;45570;48.782;8.332;2023-04-07T08:25:57;10.50;99.90
59703;DHT22;45570;48.782;8.332;2023-04-07T08:28:26;10.70;99.90
59703;DHT22;45570;48.782;8.332;2023-04-07T08:30:55;10.80;99.90
59703;DHT22;45570;48.782;8.332;2023-04-07T08:33:39;10.80;99.90
59703;DHT22;45570;48.782;8.332;2023-04-07T08:36:10;10.90;99.90
59703;DHT22;45570;48.782;8.332;2023-04-07T08:38:39;10.90;99.90
59703;DHT22;45570;48.782;8.332;2023-04-07T08:41:12;11.00;99.90
59703;DHT22;45570;48.782;8.332;2023-04-07T08:43:44;11.00;99.90
59703;DHT22;45570;48.782;8.332;2023-04-07T08:46:19;11.10;99.90
59703;DHT22;45570;48.782;8.332;2023-04-07T08:48:51;11.10;99.90
59703;DHT22;45570;48.782;8.332;2023-04-07T08:51:26;11.10;99.90
59703;DHT22;45570;48.782;8.332;2023-04-07T08:54:02;11.20;99.90
59703;DHT22;45570;48.782;8.332;2023-04-07T08:56:33;11.30;99.90
59703;DHT22;45570;48.782;8.332;2023-04-07T08:59:05;11.50;99.90
59703;DHT22;45570;48.782;8.332;2023-04-07T09:01:35;11.40;99.90
59703;DHT22;45570;48.782;8.332;2023-04-07T09:04:08;11.30;99.90
59703;DHT22;45570;48.782;8.332;2023-04-07T09:06:37;11.20;99.90
59703;DHT22;45570;48.782;8.332;2023-04-07T09:09:07;11.00;99.90
59703;DHT22;45570;48.782;8.332;2023-04-07T09:11:37;10.90;99.90
59703;DHT22;45570;48.782;8.332;2023-04-07T09:14:07;10.90;99.90
59703;DHT22;45570;48.782;8.332;2023-04-07T09:16:36;10.90;99.90
59703;DHT22;45570;48.782;8.332;2023-04-07T09:19:07;10.80;99.90
59703;DHT22;45570;48.782;8.332;2023-04-07T09:21:50;10.80;99.90
59703;DHT22;45570;48.782;8.332;2023-04-07T09:24:24;10.80;99.90
59703;DHT22;45570;48.782;8.332;2023-04-07T09:27:12;10.80;99.90
59703;DHT22;45570;48.782;8.332;2023-04-07T09:29:45;11.00;99.90
59703;DHT22;45570;48.782;8.332;2023-04-07T09:32:34;11.10;99.90
59703;DHT22;45570;48.782;8.332;2023-04-07T09:35:07;11.20;99.90
59703;DHT22;45570;48.782;8.332;2023-04-07T09:37:37;11.30;99.90
59703;DHT22;45570;48.782;8.332;2023-04-07T09:40:07;11.50;99.90
59703;DHT22;45570;48.782;8.332;2023-04-07T09:42:44;11.60;99.90
59703;DHT22;45570;48.782;8.332;2023-04-07T09:45:23;11.70;99.90
59703;DHT22;45570;48.782;8.332;2023-04-07T09:48:04;12.00;99.90
59703;DHT22;45570;48.782;8.332;2023-04-07T09:50:39;12.30;99.90
59703;DHT22;45570;48.782;8.332;2023-04-07T09:53:12;12.50;99.90
59703;DHT22;45570;48.782;8.332;2023-04-07T09:55:42;12.70;99.90
59703;DHT22;45570;48.782;8.332;2023-04-07T09:58:12;12.70;99.90
59703;DHT22;45570;48.782;8.332;2023-04-07T10:00:43;12.80;99.90
59703;DHT22;45570;48.782;8.332;2023-04-07T10:03:14;12.80;99.90
59703;DHT22;45570;48.782;8.332;2023-04-07T10:05:46;12.80;99.90
59703;DHT22;45570;48.782;8.332;2023-04-07T10:08:15;13.30;99.90
59703;DHT22;45570;48.782;8.332;2023-04-07T10:10:46;13.90;99.90
59703;DHT22;45570;48.782;8.332;2023-04-07T10:13:17;14.20;99.90
59703;DHT22;45570;48.782;8.332;2023-04-07T10:15:48;14.10;99.90
59703;DHT22;45570;48.782;8.332;2023-04-07T10:18:19;13.70;99.90
59703;DHT22;45570;48.782;8.332;2023-04-07T10:20:51;13.30;99.90
59703;DHT22;45570;48.782;8.332;2023-04-07T10:23:25;13.30;99.90
59703;DHT22;45570;48.782;8.332;2023-04-07T10:25:57;13.20;99.90
59703;DHT22;45570;48.782;8.332;2023-04-07T10:28:28;13.10;99.90
59703;DHT22;45570;48.782;8.332;2023-04-07T10:30:59;13.10;99.90
59703;DHT22;45570;48.782;8.332;2023-04-07T10:33:45;13.50;99.90
59703;DHT22;45570;48.782;8.332;2023-04-07T10:36:18;13.90;99.90
59703;DHT22;45570;48.782;8.332;2023-04-07T10:39:18;13.70;99.90
59703;DHT22;45570;48.782;8.332;2023-04-07T10:41:47;13.40;99.90
59703;DHT22;45570;48.782;8.332;2023-04-07T10:44:46;13.20;99.90
59703;DHT22;45570;48.782;8.332;2023-04-07T10:47:19;13.00;99.90
59703;DHT22;45570;48.782;8.332;2023-04-07T10:50:16;12.70;99.90
59703;DHT22;45570;48.782;8.332;2023-04-07T10:53:04;12.10;99.90
59703;DHT22;45570;48.782;8.332;2023-04-07T10:55:38;11.80;99.90
59703;DHT22;45570;48.782;8.332;2023-04-07T10:58:18;11.80;99.90
59703;DHT22;45570;48.782;8.332;2023-04-07T11:01:16;11.90;99.90
59703;DHT22;45570;48.782;8.332;2023-04-07T11:03:54;11.90;99.90
59703;DHT22;45570;48.782;8.332;2023-04-07T11:06:24;11.90;99.90
59703;DHT22;45570;48.782;8.332;2023-04-07T11:08:56;11.90;99.90
59703;DHT22;45570;48.782;8.332;2023-04-07T11:11:39;12.00;99.90
59703;DHT22;45570;48.782;8.332;2023-04-07T11:14:09;12.00;99.90
59703;DHT22;45570;48.782;8.332;2023-04-07T11:16:42;11.90;99.90
59703;DHT22;45570;48.782;8.332;2023-04-07T11:19:12;11.90;99.90
59703;DHT22;45570;48.782;8.332;2023-04-07T11:21:41;11.80;99.90
59703;DHT22;45570;48.782;8.332;2023-04-07T11:24:30;11.70;99.90
59703;DHT22;45570;48.782;8.332;2023-04-07T11:27:00;11.80;99.90
59703;DHT22;45570;48.782;8.332;2023-04-07T11:29:30;11.80;99.90
59703;DHT22;45570;48.782;8.332;2023-04-07T11:32:01;11.80;99.90
59703;DHT22;45570;48.782;8.332;2023-04-07T11:34:31;11.90;99.90
59703;DHT22;45570;48.782;8.332;2023-04-07T11:37:19;12.20;99.90
59703;DHT22;45570;48.782;8.332;2023-04-07T11:39:52;12.30;99.90
59703;DHT22;45570;48.782;8.332;2023-04-07T11:42:31;12.40;99.90
59703;DHT22;45570;48.782;8.332;2023-04-07T11:45:00;12.50;99.90
59703;DHT22;45570;48.782;8.332;2023-04-07T11:47:34;12.90;99.90
59703;DHT22;45570;48.782;8.332;2023-04-07T11:50:05;13.30;99.90
59703;DHT22;45570;48.782;8.332;2023-04-07T11:52:40;13.20;99.90
59703;DHT22;45570;48.782;8.332;2023-04-07T11:55:18;13.00;99.90
59703;DHT22;45570;48.782;8.332;2023-04-07T11:57:49;12.90;99.90
59703;DHT22;45570;48.782;8.332;2023-04-07T12:00:19;13.00;99.90
59703;DHT22;45570;48.782;8.332;2023-04-07T12:02:49;13.00;99.90
59703;DHT22;45570;48.782;8.332;2023-04-07T12:05:19;13.10;99.90
59703;DHT22;45570;48.782;8.332;2023-04-07T12:07:52;13.30;99.90
59703;DHT22;45570;48.782;8.332;2023-04-07T12:10:25;13.50;99.90
59703;DHT22;45570;48.782;8.332;2023-04-07T12:12:55;14.20;99.90
59703;DHT22;45570;48.782;8.332;2023-04-07T12:15:26;14.90;99.90
59703;DHT22;45570;48.782;8.332;2023-04-07T12:17:55;15.60;99.90
59703;DHT22;45570;48.782;8.332;2023-04-07T12:20:25;16.00;99.90
59703;DHT22;45570;48.782;8.332;2023-04-07T12:22:54;16.40;99.90
59703;DHT22;45570;48.782;8.332;2023-04-07T12:25:25;16.60;99.90
59703;DHT22;45570;48.782;8.332;2023-04-07T12:27:55;16.50;99.90
59703;DHT22;45570;48.782;8.332;2023-04-07T12:30:24;16.40;99.90
59703;DHT22;45570;48.782;8.332;2023-04-07T12:32:53;16.10;99.90
59703;DHT22;45570;48.782;8.332;2023-04-07T12:35:23;16.00;99.90
59703;DHT22;45570;48.782;8.332;2023-04-07T12:37:52;15.90;99.90
59703;DHT22;45570;48.782;8.332;2023-04-07T12:40:21;15.70;99.90
59703;DHT22;45570;48.782;8.332;2023-04-07T12:42:53;15.50;99.90
59703;DHT22;45570;48.782;8.332;2023-04-07T12:45:24;15.00;99.90
59703;DHT22;45570;48.782;8.332;2023-04-07T12:47:53;14.90;99.90
59703;DHT22;45570;48.782;8.332;2023-04-07T12:50:23;14.70;99.90
59703;DHT22;45570;48.782;8.332;2023-04-07T12:52:53;14.40;99.90
59703;DHT22;45570;48.782;8.332;2023-04-07T12:55:22;14.70;99.90
59703;DHT22;45570;48.782;8.332;2023-04-07T12:57:53;15.00;99.90
59703;DHT22;45570;48.782;8.332;2023-04-07T13:00:22;15.80;99.90
59703;DHT22;45570;48.782;8.332;2023-04-07T13:02:51;16.50;99.90
59703;DHT22;45570;48.782;8.332;2023-04-07T13:05:21;16.60;99.90
59703;DHT22;45570;48.782;8.332;2023-04-07T13:07:51;16.90;99.90
59703;DHT22;45570;48.782;8.332;2023-04-07T13:10:20;17.00;99.90
59703;DHT22;45570;48.782;8.332;2023-04-07T13:12:49;17.00;99.90
59703;DHT22;45570;48.782;8.332;2023-04-07T13:15:20;17.20;99.90
59703;DHT22;45570;48.782;8.332;2023-04-07T13:17:49;17.20;99.90
59703;DHT22;45570;48.782;8.332;2023-04-07T13:20:18;17.30;99.90
59703;DHT22;45570;48.782;8.332;2023-04-07T13:22:48;17.20;99.90
59703;DHT22;45570;48.782;8.332;2023-04-07T13:25:32;16.80;99.90
59703;DHT22;45570;48.782;8.332;2023-04-07T13:28:02;16.20;99.90
59703;DHT22;45570;48.782;8.332;2023-04-07T13:30:32;16.20;99.90
59703;DHT22;45570;48.782;8.332;2023-04-07T13:33:02;16.20;99.90
59703;DHT22;45570;48.782;8.332;2023-04-07T13:35:32;15.90;99.90
59703;DHT22;45570;48.782;8.332;2023-04-07T13:38:03;15.50;99.90
59703;DHT22;45570;48.782;8.332;2023-04-07T13:40:33;15.10;99.90
59703;DHT22;45570;48.782;8.332;2023-04-07T13:43:02;14.90;99.90
59703;DHT22;45570;48.782;8.332;2023-04-07T13:45:34;14.70;99.90
59703;DHT22;45570;48.782;8.332;2023-04-07T13:48:04;14.60;99.90
59703;DHT22;45570;48.782;8.332;2023-04-07T13:50:37;14.70;99.90
59703;DHT22;45570;48.782;8.332;2023-04-07T13:53:06;15.00;99.90
59703;DHT22;45570;48.782;8.332;2023-04-07T13:55:35;15.00;99.90
59703;DHT22;45570;48.782;8.332;2023-04-07T13:58:05;14.80;99.90
59703;DHT22;45570;48.782;8.332;2023-04-07T14:00:38;14.90;99.90
59703;DHT22;45570;48.782;8.332;2023-04-07T14:03:07;15.10;99.90
59703;DHT22;45570;48.782;8.332;2023-04-07T14:05:37;15.30;99.90
59703;DHT22;45570;48.782;8.332;2023-04-07T14:08:06;15.40;99.90
59703;DHT22;45570;48.782;8.332;2023-04-07T14:10:36;15.80;99.90
59703;DHT22;45570;48.782;8.332;2023-04-07T14:13:06;16.30;99.90
59703;DHT22;45570;48.782;8.332;2023-04-07T14:15:37;16.10;99.90
59703;DHT22;45570;48.782;8.332;2023-04-07T14:18:07;16.00;99.90
59703;DHT22;45570;48.782;8.332;2023-04-07T14:20:37;16.00;99.90
59703;DHT22;45570;48.782;8.332;2023-04-07T14:23:06;16.20;99.90
59703;DHT22;45570;48.782;8.332;2023-04-07T14:25:35;16.20;99.90
59703;DHT22;45570;48.782;8.332;2023-04-07T14:28:04;16.20;99.90
59703;DHT22;45570;48.782;8.332;2023-04-07T14:30:35;16.10;99.90
59703;DHT22;45570;48.782;8.332;2023-04-07T14:33:07;15.90;99.90
59703;DHT22;45570;48.782;8.332;2023-04-07T14:35:36;15.50;99.90
59703;DHT22;45570;48.782;8.332;2023-04-07T14:38:05;15.10;99.90
59703;DHT22;45570;48.782;8.332;2023-04-07T14:40:35;14.60;99.90
59703;DHT22;45570;48.782;8.332;2023-04-07T14:43:04;14.30;99.90
59703;DHT22;45570;48.782;8.332;2023-04-07T14:45:34;14.30;99.90
59703;DHT22;45570;48.782;8.332;2023-04-07T14:48:04;14.20;99.90
59703;DHT22;45570;48.782;8.332;2023-04-07T14:50:35;14.40;99.90
59703;DHT22;45570;48.782;8.332;2023-04-07T14:53:05;14.70;99.90
59703;DHT22;45570;48.782;8.332;2023-04-07T14:55:34;14.70;99.90
59703;DHT22;45570;48.782;8.332;2023-04-07T14:58:03;14.90;99.90
59703;DHT22;45570;48.782;8.332;2023-04-07T15:00:33;14.90;99.90
59703;DHT22;45570;48.782;8.332;2023-04-07T15:03:09;14.70;99.90
59703;DHT22;45570;48.782;8.332;2023-04-07T15:05:58;14.50;99.90
59703;DHT22;45570;48.782;8.332;2023-04-07T15:08:27;14.00;99.90
59703;DHT22;45570;48.782;8.332;2023-04-07T15:10:56;13.60;99.90
59703;DHT22;45570;48.782;8.332;2023-04-07T15:13:26;13.50;99.90
59703;DHT22;45570;48.782;8.332;2023-04-07T15:15:55;13.30;99.90
59703;DHT22;45570;48.782;8.332;2023-04-07T15:18:24;13.20;99.90
59703;DHT22;45570;48.782;8.332;2023-04-07T15:21:57;13.20;99.90
59703;DHT22;45570;48.782;8.332;2023-04-07T15:24:27;12.90;99.90
59703;DHT22;45570;48.782;8.332;2023-04-07T15:26:56;13.00;99.90
59703;DHT22;45570;48.782;8.332;2023-04-07T15:29:25;12.90;99.90
59703;DHT22;45570;48.782;8.332;2023-04-07T15:31:55;12.80;99.90
59703;DHT22;45570;48.782;8.332;2023-04-07T15:34:24;12.60;99.90
59703;DHT22;45570;48.782;8.332;2023-04-07T15:36:53;12.30;99.90
59703;DHT22;45570;48.782;8.332;2023-04-07T15:39:24;12.20;99.90
59703;DHT22;45570;48.782;8.332;2023-04-07T15:41:53;12.00;99.90
59703;DHT22;45570;48.782;8.332;2023-04-07T15:44:23;11.90;99.90
59703;DHT22;45570;48.782;8.332;2023-04-07T15:46:52;11.90;99.90
59703;DHT22;45570;48.782;8.332;2023-04-07T15:49:22;11.90;99.90
59703;DHT22;45570;48.782;8.332;2023-04-07T15:51:53;11.70;99.90
59703;DHT22;45570;48.782;8.332;2023-04-07T15:54:25;11.60;99.90
59703;DHT22;45570;48.782;8.332;2023-04-07T15:56:55;11.60;99.90
59703;DHT22;45570;48.782;8.332;2023-04-07T15:59:24;11.60;99.90
59703;DHT22;45570;48.782;8.332;2023-04-07T16:01:56;11.70;99.90
59703;DHT22;45570;48.782;8.332;2023-04-07T16:04:25;11.70;99.90
59703;DHT22;45570;48.782;8.332;2023-04-07T16:06:55;11.70;99.90
59703;DHT22;45570;48.782;8.332;2023-04-07T16:09:26;11.60;99.90